| time (UTC) | temp C | wind direction | speed KPH | gust KPH | rain 1hr cm | rain 24hr cm | rain mn cm | humidity % | barometer mb |
| 20260502224000 | 21 | 336 | 12.9 | 22.5 | 0.00 | 0.00 | 0.00 | 40 | 1013.9 |
| 20260502223500 | 22 | 292 | 16.1 | 22.5 | 0.00 | 0.00 | 0.00 | 42 | 1013.9 |
| 20260502223000 | 22 | 315 | 9.7 | 19.3 | 0.00 | 0.00 | 0.00 | 42 | 1013.9 |
| 20260502222500 | 22 | 332 | 16.1 | 24.1 | 0.00 | 0.00 | 0.00 | 39 | 1013.9 |
| 20260502222000 | 21 | 339 | 17.7 | 24.1 | 0.00 | 0.00 | 0.00 | 37 | 1013.9 |
| 20260502221500 | 22 | 318 | 14.5 | 25.7 | 0.00 | 0.00 | 0.00 | 39 | 1013.8 |
| 20260502221000 | 21 | 294 | 12.9 | 25.7 | 0.00 | 0.00 | 0.00 | 36 | 1013.9 |
| 20260502220500 | 21 | 334 | 6.4 | 27.4 | 0.00 | 0.00 | 0.00 | 35 | 1013.8 |
| 20260502220000 | 21 | 332 | 19.3 | 27.4 | 0.00 | 0.00 | 0.00 | 37 | 1013.8 |
| 20260502215500 | 22 | 331 | 11.3 | 20.9 | 0.00 | 0.00 | 0.00 | 40 | 1013.9 |
| 20260502215000 | 21 | 323 | 11.3 | 19.3 | 0.00 | 0.00 | 0.00 | 38 | 1013.8 |
| 20260502214500 | 21 | 352 | 8.0 | 19.3 | 0.00 | 0.00 | 0.00 | 40 | 1013.9 |
| 20260502214000 | 21 | 326 | 8.0 | 24.1 | 0.00 | 0.00 | 0.00 | 43 | 1013.9 |
| 20260502213500 | 21 | 341 | 11.3 | 24.1 | 0.00 | 0.00 | 0.00 | 39 | 1013.9 |
| 20260502213000 | 21 | 331 | 16.1 | 24.1 | 0.00 | 0.00 | 0.00 | 42 | 1013.9 |
| 20260502212500 | 21 | 317 | 14.5 | 29.0 | 0.00 | 0.00 | 0.00 | 39 | 1013.9 |
| 20260502212000 | 21 | 339 | 14.5 | 29.0 | 0.00 | 0.00 | 0.00 | 39 | 1014.0 |
| 20260502211500 | 21 | 300 | 16.1 | 22.5 | 0.00 | 0.00 | 0.00 | 38 | 1014.1 |
| 20260502211000 | 21 | 318 | 22.5 | 25.7 | 0.00 | 0.00 | 0.00 | 41 | 1014.1 |
| 20260502210500 | 22 | 345 | 12.9 | 25.7 | 0.00 | 0.00 | 0.00 | 39 | 1014.2 |
| 20260502210000 | 21 | 321 | 9.7 | 25.7 | 0.00 | 0.00 | 0.00 | 37 | 1014.3 |
| 20260502205500 | 21 | 311 | 12.9 | 22.5 | 0.00 | 0.00 | 0.00 | 37 | 1014.3 |
| 20260502205000 | 22 | 327 | 20.9 | 20.9 | 0.00 | 0.00 | 0.00 | 41 | 1014.4 |
| 20260502204500 | 21 | 294 | 11.3 | 20.9 | 0.00 | 0.00 | 0.00 | 36 | 1014.4 |
| 20260502204000 | 21 | 320 | 12.9 | 22.5 | 0.00 | 0.00 | 0.00 | 36 | 1014.4 |
| 20260502203500 | 21 | 346 | 11.3 | 27.4 | 0.00 | 0.00 | 0.00 | 37 | 1014.5 |
| 20260502203000 | 22 | 308 | 14.5 | 27.4 | 0.00 | 0.00 | 0.00 | 38 | 1014.5 |
| 20260502202501 | 21 | 292 | 12.9 | 20.9 | 0.00 | 0.00 | 0.00 | 38 | 1014.5 |
| 20260502202000 | 21 | 340 | 16.1 | 27.4 | 0.00 | 0.00 | 0.00 | 37 | 1014.6 |
| 20260502201500 | 21 | 342 | 12.9 | 27.4 | 0.00 | 0.00 | 0.00 | 35 | 1014.7 |
| 20260502201000 | 21 | 326 | 22.5 | 25.7 | 0.00 | 0.00 | 0.00 | 41 | 1014.6 |
| 20260502200500 | 21 | 328 | 14.5 | 29.0 | 0.00 | 0.00 | 0.00 | 41 | 1014.9 |
| 20260502200000 | 21 | 328 | 19.3 | 29.0 | 0.00 | 0.00 | 0.00 | 35 | 1014.9 |
| 20260502195500 | 21 | 318 | 25.7 | 25.7 | 0.00 | 0.00 | 0.00 | 36 | 1014.7 |
| 20260502195000 | 21 | 294 | 14.5 | 27.4 | 0.00 | 0.00 | 0.00 | 37 | 1014.8 |
| 20260502194500 | 21 | 313 | 17.7 | 27.4 | 0.00 | 0.00 | 0.00 | 41 | 1014.9 |
| 20260502194000 | 21 | 328 | 11.3 | 30.6 | 0.00 | 0.00 | 0.00 | 41 | 1015.0 |
| 20260502193500 | 21 | 296 | 22.5 | 32.2 | 0.00 | 0.00 | 0.00 | 40 | 1014.9 |
| 20260502193000 | 21 | 298 | 19.3 | 32.2 | 0.00 | 0.00 | 0.00 | 40 | 1015.0 |
| 20260502192500 | 22 | 294 | 22.5 | 32.2 | 0.00 | 0.00 | 0.00 | 37 | 1015.1 |
| 20260502192000 | 21 | 314 | 20.9 | 32.2 | 0.00 | 0.00 | 0.00 | 44 | 1015.2 |
| 20260502191500 | 22 | 304 | 25.7 | 33.8 | 0.00 | 0.00 | 0.00 | 41 | 1015.1 |
| 20260502191000 | 21 | 310 | 9.7 | 33.8 | 0.00 | 0.00 | 0.00 | 34 | 1015.2 |
| 20260502190500 | 21 | 315 | 19.3 | 22.5 | 0.00 | 0.00 | 0.00 | 41 | 1015.3 |
| 20260502190000 | 21 | 300 | 20.9 | 22.5 | 0.00 | 0.00 | 0.00 | 37 | 1015.3 |
| 20260502185500 | 21 | 313 | 9.7 | 22.5 | 0.00 | 0.00 | 0.00 | 34 | 1015.4 |
| 20260502185000 | 21 | 319 | 11.3 | 33.8 | 0.00 | 0.00 | 0.00 | 36 | 1015.4 |
| 20260502184500 | 21 | 315 | 19.3 | 33.8 | 0.00 | 0.00 | 0.00 | 35 | 1015.4 |
| 20260502184000 | 21 | 294 | 30.6 | 33.8 | 0.00 | 0.00 | 0.00 | 41 | 1015.3 |
| 20260502183501 | 21 | 286 | 16.1 | 29.0 | 0.00 | 0.00 | 0.00 | 40 | 1015.5 |
| 20260502183000 | 21 | 298 | 22.5 | 29.0 | 0.00 | 0.00 | 0.00 | 36 | 1015.6 |
| 20260502182500 | 21 | 301 | 11.3 | 29.0 | 0.00 | 0.00 | 0.00 | 35 | 1015.5 |
| 20260502182000 | 21 | 278 | 24.1 | 24.1 | 0.00 | 0.00 | 0.00 | 40 | 1015.5 |
| 20260502181500 | 20 | 277 | 14.5 | 25.7 | 0.00 | 0.00 | 0.00 | 38 | 1015.7 |
| 20260502181000 | 20 | 300 | 17.7 | 25.7 | 0.00 | 0.00 | 0.00 | 41 | 1015.7 |
| 20260502180500 | 20 | 248 | 11.3 | 22.5 | 0.00 | 0.00 | 0.00 | 43 | 1015.8 |
| 20260502170500 | 20 | 256 | 11.3 | 29.0 | 0.00 | 0.00 | 0.00 | 40 | 1016.3 |
| 20260502164000 | 19 | 300 | 8.0 | 16.1 | 0.00 | 0.00 | 0.00 | 43 | 1016.5 |
| 20260502163500 | 18 | 244 | 8.0 | 16.1 | 0.00 | 0.00 | 0.00 | 43 | 1016.5 |
| 20260502163000 | 19 | 275 | 8.0 | 19.3 | 0.00 | 0.00 | 0.00 | 43 | 1016.4 |
| 20260502162500 | 19 | 285 | 11.3 | 19.3 | 0.00 | 0.00 | 0.00 | 45 | 1016.4 |
| 20260502162000 | 18 | 273 | 3.2 | 16.1 | 0.00 | 0.00 | 0.00 | 40 | 1016.4 |
| 20260502161500 | 18 | 249 | 6.4 | 12.9 | 0.00 | 0.00 | 0.00 | 46 | 1016.4 |
| 20260502161000 | 18 | 247 | 6.4 | 19.3 | 0.00 | 0.00 | 0.00 | 46 | 1016.4 |
| 20260502160500 | 18 | 236 | 9.7 | 19.3 | 0.00 | 0.00 | 0.00 | 49 | 1016.5 |
| 20260502152000 | 17 | 255 | 4.8 | 16.1 | 0.00 | 0.00 | 0.00 | 42 | 1016.5 |
| 20260502151500 | 17 | 332 | 6.4 | 14.5 | 0.00 | 0.00 | 0.00 | 42 | 1016.5 |
| 20260502151000 | 17 | 248 | 6.4 | 11.3 | 0.00 | 0.00 | 0.00 | 43 | 1016.5 |
| 20260502150500 | 17 | 299 | 4.8 | 11.3 | 0.00 | 0.00 | 0.00 | 47 | 1016.5 |
| 20260502130500 | 12 | 285 | 4.8 | 4.8 | 0.00 | 0.00 | 0.00 | 86 | 1015.5 |
| 20260502123500 | 10 | 273 | 3.2 | 4.8 | 0.00 | 0.00 | 0.00 | 93 | 1014.9 |
| 20260502123000 | 10 | 290 | 4.8 | 4.8 | 0.00 | 0.00 | 0.00 | 94 | 1014.7 |
| 20260502122500 | 9 | 303 | 3.2 | 3.2 | 0.00 | 0.00 | 0.00 | 94 | 1014.6 |
| 20260502122000 | 9 | 332 | 1.6 | 3.2 | 0.00 | 0.00 | 0.00 | 93 | 1014.6 |
| 20260502121505 | 9 | 276 | 1.6 | 3.2 | 0.00 | 0.00 | 0.00 | 94 | 1014.5 |
| 20260502121000 | 9 | 287 | 3.2 | 4.8 | 0.00 | 0.00 | 0.00 | 94 | 1014.5 |
| 20260502120505 | 9 | 280 | 1.6 | 4.8 | 0.00 | 0.00 | 0.00 | 94 | 1014.4 |
| 20260502115500 | 8 | 297 | 4.8 | 4.8 | 0.00 | 0.00 | 0.00 | 94 | 1014.3 |
| 20260502115000 | 8 | 310 | 3.2 | 3.2 | 0.00 | 0.00 | 0.00 | 94 | 1014.3 |
| 20260502114500 | 8 | 317 | 1.6 | 3.2 | 0.00 | 0.00 | 0.00 | 94 | 1014.1 |
| 20260502114000 | 8 | 299 | 3.2 | 3.2 | 0.00 | 0.00 | 0.00 | 94 | 1014.0 |
| 20260502113500 | 8 | 318 | 1.6 | 4.8 | 0.00 | 0.00 | 0.00 | 93 | 1013.9 |
| 20260502113000 | 8 | 280 | 3.2 | 4.8 | 0.00 | 0.00 | 0.00 | 93 | 1013.8 |
| 20260502112500 | 8 | 296 | 3.2 | 3.2 | 0.00 | 0.00 | 0.00 | 94 | 1013.8 |
| 20260502112000 | 8 | 312 | 3.2 | 3.2 | 0.00 | 0.00 | 0.00 | 93 | 1013.8 |
| 20260502111500 | 8 | 318 | 1.6 | 1.6 | 0.00 | 0.00 | 0.00 | 93 | 1013.7 |
| 20260502111000 | 8 | 345 | 1.6 | 1.6 | 0.00 | 0.00 | 0.00 | 93 | 1013.6 |
| 20260502110500 | 8 | 301 | 1.6 | 1.6 | 0.00 | 0.00 | 0.00 | 93 | 1013.6 |
| 20260502110000 | 8 | 278 | 1.6 | 1.6 | 0.00 | 0.00 | 0.00 | 93 | 1013.7 |
| 20260502105500 | 8 | 85 | 1.6 | 3.2 | 0.00 | 0.00 | 0.00 | 93 | 1013.7 |
| 20260502105000 | 8 | 261 | 1.6 | 3.2 | 0.00 | 0.00 | 0.00 | 93 | 1013.6 |
| 20260502104500 | 8 | 234 | 1.6 | 1.6 | 0.00 | 0.00 | 0.00 | 93 | 1013.5 |
| 20260502104000 | 8 | 233 | 1.6 | 3.2 | 0.00 | 0.00 | 0.00 | 93 | 1013.5 |
| 20260502103500 | 9 | 262 | 1.6 | 3.2 | 0.00 | 0.00 | 0.00 | 93 | 1013.5 |
| 20260502103000 | 9 | 263 | 1.6 | 4.8 | 0.00 | 0.00 | 0.00 | 93 | 1013.5 |
| 20260502102500 | 9 | 268 | 1.6 | 4.8 | 0.00 | 0.00 | 0.00 | 93 | 1013.5 |
| 20260502102000 | 9 | 279 | 4.8 | 4.8 | 0.00 | 0.00 | 0.00 | 93 | 1013.4 |
| 20260502101500 | 9 | 282 | 3.2 | 3.2 | 0.00 | 0.00 | 0.00 | 93 | 1013.4 |
| 20260502101000 | 9 | 283 | 3.2 | 4.8 | 0.00 | 0.00 | 0.00 | 92 | 1013.3 |
| 20260502100500 | 9 | 282 | 3.2 | 4.8 | 0.00 | 0.00 | 0.00 | 92 | 1013.3 |
| 20260502091500 | 10 | 297 | 3.2 | 3.2 | 0.00 | 0.00 | 0.00 | 90 | 1012.9 |
| 20260502091000 | 10 | 286 | 3.2 | 3.2 | 0.00 | 0.00 | 0.00 | 90 | 1012.9 |
| 20260502090500 | 10 | 290 | 3.2 | 3.2 | 0.00 | 0.00 | 0.00 | 90 | 1012.9 |
| 20260502071500 | 12 | 307 | 0.0 | 3.2 | 0.00 | 0.00 | 0.00 | 84 | 1012.9 |
| 20260502071000 | 12 | 348 | 1.6 | 3.2 | 0.00 | 0.00 | 0.00 | 82 | 1013.0 |
| 20260502070500 | 12 | 358 | 1.6 | 3.2 | 0.00 | 0.00 | 0.00 | 84 | 1012.9 |
| 20260502070000 | 12 | 313 | 1.6 | 4.8 | 0.00 | 0.00 | 0.00 | 83 | 1013.1 |
| 20260502065500 | 12 | 319 | 1.6 | 4.8 | 0.00 | 0.00 | 0.00 | 82 | 1013.1 |
| 20260502065000 | 12 | 326 | 3.2 | 6.4 | 0.00 | 0.00 | 0.00 | 83 | 1013.1 |
| 20260502064500 | 12 | 328 | 4.8 | 6.4 | 0.00 | 0.00 | 0.00 | 82 | 1013.2 |
| 20260502064000 | 12 | 329 | 4.8 | 8.0 | 0.00 | 0.00 | 0.00 | 82 | 1013.2 |
| 20260502063500 | 12 | 314 | 6.4 | 8.0 | 0.00 | 0.00 | 0.00 | 82 | 1013.3 |
| 20260502063000 | 12 | 332 | 4.8 | 6.4 | 0.00 | 0.00 | 0.00 | 83 | 1013.3 |
| 20260502062500 | 12 | 326 | 4.8 | 6.4 | 0.00 | 0.00 | 0.00 | 82 | 1013.4 |
| 20260502062000 | 12 | 338 | 6.4 | 8.0 | 0.00 | 0.00 | 0.00 | 81 | 1013.4 |
| 20260502061500 | 12 | 319 | 6.4 | 8.0 | 0.00 | 0.00 | 0.00 | 82 | 1013.3 |
| 20260502061001 | 12 | 333 | 4.8 | 8.0 | 0.00 | 0.00 | 0.00 | 80 | 1013.2 |
| 20260502060500 | 12 | 325 | 6.4 | 8.0 | 0.00 | 0.00 | 0.00 | 82 | 1013.2 |
| 20260502060000 | 12 | 328 | 6.4 | 8.0 | 0.00 | 0.00 | 0.00 | 81 | 1013.2 |
| 20260502055500 | 12 | 321 | 6.4 | 8.0 | 0.00 | 0.00 | 0.00 | 81 | 1013.1 |
| 20260502055000 | 12 | 326 | 6.4 | 6.4 | 0.00 | 0.00 | 0.00 | 86 | 1013.2 |
| 20260502054500 | 12 | 319 | 4.8 | 6.4 | 0.00 | 0.00 | 0.00 | 88 | 1013.2 |
| 20260502054000 | 12 | 319 | 6.4 | 6.4 | 0.00 | 0.00 | 0.00 | 87 | 1013.3 |
| 20260502053500 | 12 | 319 | 3.2 | 4.8 | 0.00 | 0.00 | 0.00 | 86 | 1013.4 |
| 20260502053000 | 12 | 311 | 3.2 | 3.2 | 0.00 | 0.00 | 0.00 | 84 | 1013.4 |
| 20260502052501 | 12 | 300 | 1.6 | 3.2 | 0.00 | 0.00 | 0.00 | 82 | 1013.5 |
| 20260502052000 | 12 | 282 | 1.6 | 3.2 | 0.00 | 0.00 | 0.00 | 83 | 1013.5 |
| 20260502051500 | 12 | 263 | 1.6 | 3.2 | 0.00 | 0.00 | 0.00 | 82 | 1013.4 |
| 20260502051000 | 12 | 275 | 3.2 | 3.2 | 0.00 | 0.00 | 0.00 | 84 | 1013.3 |
| 20260502050500 | 12 | 275 | 1.6 | 3.2 | 0.00 | 0.00 | 0.00 | 85 | 1013.3 |
| 20260502050000 | 12 | 271 | 1.6 | 4.8 | 0.00 | 0.00 | 0.00 | 86 | 1013.2 |
| 20260502045500 | 12 | 279 | 1.6 | 4.8 | 0.00 | 0.00 | 0.00 | 86 | 1013.2 |
| 20260502045000 | 12 | 272 | 4.8 | 4.8 | 0.00 | 0.00 | 0.00 | 85 | 1013.1 |
| 20260502044500 | 12 | 270 | 3.2 | 3.2 | 0.00 | 0.00 | 0.00 | 86 | 1013.1 |
| 20260502044000 | 12 | 275 | 1.6 | 3.2 | 0.00 | 0.00 | 0.00 | 86 | 1013.1 |
| 20260502043500 | 12 | 292 | 3.2 | 4.8 | 0.00 | 0.00 | 0.00 | 86 | 1013.0 |
| 20260502043000 | 12 | 294 | 3.2 | 6.4 | 0.00 | 0.00 | 0.00 | 84 | 1013.0 |
| 20260502042500 | 12 | 294 | 4.8 | 6.4 | 0.00 | 0.00 | 0.00 | 84 | 1013.1 |
| 20260502042000 | 12 | 288 | 4.8 | 6.4 | 0.00 | 0.00 | 0.00 | 83 | 1013.1 |
| 20260502041500 | 12 | 282 | 4.8 | 4.8 | 0.00 | 0.00 | 0.00 | 82 | 1013.1 |
| 20260502041000 | 13 | 289 | 3.2 | 4.8 | 0.00 | 0.00 | 0.00 | 83 | 1013.1 |
| 20260502040500 | 13 | 287 | 4.8 | 4.8 | 0.00 | 0.00 | 0.00 | 82 | 1013.2 |
| 20260502040000 | 13 | 327 | 4.8 | 6.4 | 0.00 | 0.00 | 0.00 | 75 | 1013.2 |
| 20260502035500 | 13 | 333 | 3.2 | 6.4 | 0.00 | 0.00 | 0.00 | 71 | 1013.1 |
| 20260502035000 | 14 | 332 | 6.4 | 6.4 | 0.00 | 0.00 | 0.00 | 69 | 1013.2 |
| 20260502034500 | 14 | 339 | 4.8 | 6.4 | 0.00 | 0.00 | 0.00 | 67 | 1013.2 |
| 20260502034000 | 14 | 337 | 4.8 | 4.8 | 0.00 | 0.00 | 0.00 | 67 | 1013.2 |
| 20260502033500 | 14 | 335 | 4.8 | 4.8 | 0.00 | 0.00 | 0.00 | 67 | 1013.2 |
| 20260502033001 | 14 | 342 | 4.8 | 4.8 | 0.00 | 0.00 | 0.00 | 68 | 1013.2 |
| 20260502032500 | 14 | 345 | 4.8 | 4.8 | 0.00 | 0.00 | 0.00 | 66 | 1013.1 |
| 20260502032000 | 14 | 354 | 4.8 | 6.4 | 0.00 | 0.00 | 0.00 | 66 | 1013.1 |
| 20260502031500 | 14 | 349 | 4.8 | 6.4 | 0.00 | 0.00 | 0.00 | 65 | 1013.0 |
| 20260502031000 | 14 | 355 | 4.8 | 6.4 | 0.00 | 0.00 | 0.00 | 66 | 1012.9 |
| 20260502030500 | 15 | 347 | 4.8 | 4.8 | 0.00 | 0.00 | 0.00 | 66 | 1013.0 |
| 20260502030000 | 15 | 8 | 3.2 | 4.8 | 0.00 | 0.00 | 0.00 | 65 | 1013.0 |
| 20260502025500 | 15 | 334 | 1.6 | 3.2 | 0.00 | 0.00 | 0.00 | 66 | 1013.1 |
| 20260502025000 | 15 | 333 | 3.2 | 6.4 | 0.00 | 0.00 | 0.00 | 64 | 1012.9 |
| 20260502024500 | 15 | 37 | 3.2 | 6.4 | 0.00 | 0.00 | 0.00 | 63 | 1012.8 |
| 20260502024000 | 15 | 17 | 1.6 | 4.8 | 0.00 | 0.00 | 0.00 | 63 | 1012.7 |
| 20260502023500 | 15 | 345 | 1.6 | 6.4 | 0.00 | 0.00 | 0.00 | 65 | 1012.6 |
| 20260502023000 | 15 | 354 | 3.2 | 12.9 | 0.00 | 0.00 | 0.00 | 63 | 1012.7 |
| 20260502022500 | 15 | 344 | 4.8 | 12.9 | 0.00 | 0.00 | 0.00 | 61 | 1012.5 |
| 20260502022000 | 15 | 14 | 9.7 | 9.7 | 0.00 | 0.00 | 0.00 | 60 | 1012.4 |
| 20260502021500 | 15 | 10 | 8.0 | 9.7 | 0.00 | 0.00 | 0.00 | 61 | 1012.3 |
| 20260502021000 | 15 | 350 | 3.2 | 9.7 | 0.00 | 0.00 | 0.00 | 61 | 1012.5 |
| 20260502020500 | 15 | 13 | 6.4 | 9.7 | 0.00 | 0.00 | 0.00 | 63 | 1012.3 |
| 20260502020000 | 15 | 6 | 6.4 | 8.0 | 0.00 | 0.00 | 0.00 | 64 | 1012.5 |
| 20260502015500 | 15 | 29 | 4.8 | 6.4 | 0.00 | 0.00 | 0.00 | 65 | 1012.6 |
| 20260502015000 | 15 | 58 | 4.8 | 6.4 | 0.00 | 0.00 | 0.00 | 65 | 1012.7 |
| 20260502014500 | 15 | 22 | 4.8 | 4.8 | 0.00 | 0.00 | 0.00 | 64 | 1012.8 |
| 20260502014000 | 15 | 10 | 3.2 | 6.4 | 0.00 | 0.00 | 0.00 | 62 | 1012.8 |
| 20260502013500 | 15 | 353 | 4.8 | 6.4 | 0.00 | 0.00 | 0.00 | 61 | 1012.8 |
| 20260502013000 | 15 | 13 | 4.8 | 6.4 | 0.00 | 0.00 | 0.00 | 68 | 1012.8 |
| 20260502012500 | 16 | 11 | 3.2 | 4.8 | 0.00 | 0.00 | 0.00 | 59 | 1012.9 |
| 20260502012000 | 15 | 66 | 3.2 | 4.8 | 0.00 | 0.00 | 0.00 | 60 | 1012.9 |
| 20260502011500 | 15 | 40 | 1.6 | 4.8 | 0.00 | 0.00 | 0.00 | 61 | 1012.9 |
| 20260502011000 | 16 | 357 | 4.8 | 4.8 | 0.00 | 0.00 | 0.00 | 58 | 1012.9 |
| 20260502010500 | 16 | 38 | 1.6 | 4.8 | 0.00 | 0.00 | 0.00 | 57 | 1012.9 |
| 20260502010000 | 16 | 108 | 3.2 | 4.8 | 0.00 | 0.00 | 0.00 | 54 | 1012.9 |
| 20260502005500 | 16 | 105 | 1.6 | 6.4 | 0.00 | 0.00 | 0.00 | 52 | 1012.9 |
| 20260502005000 | 16 | 54 | 1.6 | 6.4 | 0.00 | 0.00 | 0.00 | 52 | 1012.5 |
| 20260502004500 | 16 | 40 | 4.8 | 8.0 | 0.00 | 0.00 | 0.00 | 50 | 1012.6 |
| 20260502004000 | 16 | 70 | 3.2 | 8.0 | 0.00 | 0.00 | 0.00 | 49 | 1012.6 |
| 20260502003505 | 16 | 88 | 6.4 | 8.0 | 0.00 | 0.00 | 0.00 | 47 | 1012.7 |
| 20260502002501 | 17 | 74 | 6.4 | 11.3 | 0.00 | 0.00 | 0.00 | 48 | 1012.5 |
| 20260502002000 | 17 | 27 | 4.8 | 11.3 | 0.00 | 0.00 | 0.00 | 46 | 1012.5 |
| 20260502001500 | 17 | 69 | 4.8 | 19.3 | 0.00 | 0.00 | 0.00 | 46 | 1012.2 |
| 20260502001000 | 17 | 57 | 6.4 | 19.3 | 0.00 | 0.00 | 0.00 | 45 | 1011.9 |
| 20260502000501 | 17 | 61 | 11.3 | 14.5 | 0.00 | 0.00 | 0.00 | 45 | 1011.6 |
| 20260502000000 | 17 | 49 | 8.0 | 14.5 | 0.00 | 0.00 | 0.00 | 45 | 1011.4 |
| 20260501235500 | 17 | 33 | 6.4 | 20.9 | 0.00 | 0.00 | 0.00 | 46 | 1011.2 |
| 20260501235000 | 17 | 51 | 9.7 | 20.9 | 0.00 | 0.00 | 0.00 | 44 | 1011.1 |
| 20260501234500 | 17 | 25 | 4.8 | 20.9 | 0.00 | 0.00 | 0.00 | 47 | 1011.3 |
| 20260501234000 | 17 | 67 | 8.0 | 14.5 | 0.00 | 0.00 | 0.00 | 47 | 1011.5 |
| 20260501233500 | 17 | 53 | 6.4 | 14.5 | 0.00 | 0.00 | 0.00 | 45 | 1011.5 |
| 20260501233000 | 17 | 17 | 8.0 | 14.5 | 0.00 | 0.00 | 0.00 | 47 | 1011.5 |
| 20260501232500 | 17 | 68 | 9.7 | 16.1 | 0.00 | 0.00 | 0.00 | 47 | 1011.4 |
| 20260501232000 | 17 | 12 | 6.4 | 16.1 | 0.00 | 0.00 | 0.00 | 46 | 1011.2 |
| 20260501231500 | 17 | 28 | 8.0 | 14.5 | 0.00 | 0.00 | 0.00 | 45 | 1011.2 |
| 20260501231000 | 17 | 20 | 11.3 | 12.9 | 0.00 | 0.00 | 0.00 | 46 | 1011.4 |
| 20260501230500 | 17 | 32 | 8.0 | 14.5 | 0.00 | 0.00 | 0.00 | 44 | 1011.5 |
| 20260501230000 | 17 | 22 | 4.8 | 14.5 | 0.00 | 0.00 | 0.00 | 45 | 1011.4 |
| 20260501225500 | 17 | 38 | 12.9 | 16.1 | 0.00 | 0.00 | 0.00 | 43 | 1011.2 |
| 20260501225000 | 17 | 1 | 12.9 | 17.7 | 0.00 | 0.00 | 0.00 | 42 | 1011.3 |
| 20260501224500 | 17 | 23 | 9.7 | 17.7 | 0.00 | 0.00 | 0.00 | 41 | 1011.3 |